L70 weather

Agua Dulce Airpark
Agua Dulce, California, United States

Public forecast

Using degrees Fahrenheit for public forecast. Weather courtesy of forecast.io.

Closest aviation weather report (METAR) to Agua Dulce Airpark

Closest report is Palmdale Regional/USAF Plant 42 Airport, 13.5 nm (25.1 km) NE. Retrieved 2019/12/15 19:53 UTC (48 minutes ago):

KPMD 151953Z 28016KT 10SM CLR 10/M01 A3009 RMK AO2 SLP185 T01001011

Closest aviation forecast (TAF) to Agua Dulce Airpark

Closest forecast is Palmdale Regional/USAF Plant 42 Airport, 13.5 nm (25.1 km) NE. Retrieved 2019/12/15 18:39 UTC (2 hours ago):

TAF KPMD 151737Z 1518/1618 VRB03KT P6SM SKC FM152200 30015G25KT P6SM SKC FM160200 32010KT P6SM SKC FM160600 27008KT P6SM SKC FM161600 06008KT P6SM SKC